createdAt,value
2023-01-12T00:03:51.123Z,9.19
2023-01-12T00:08:53.254Z,9.16
2023-01-12T00:13:55.868Z,9.12
2023-01-12T00:18:57.911Z,9.02
2023-01-12T00:23:59.667Z,8.96
2023-01-12T00:29:01.821Z,8.95
2023-01-12T00:34:03.746Z,8.89
2023-01-12T00:39:05.834Z,8.82
2023-01-12T00:44:26.265Z,8.80
2023-01-12T00:49:28.422Z,8.74
2023-01-12T00:54:30.243Z,8.72
2023-01-12T00:59:32.412Z,8.75
2023-01-12T01:04:37.156Z,8.75
2023-01-12T01:09:39.123Z,8.79
2023-01-12T01:14:40.985Z,8.81
2023-01-12T01:19:43.883Z,8.85
2023-01-12T01:24:45.872Z,8.82
2023-01-12T01:29:47.839Z,8.80
2023-01-12T01:34:49.636Z,8.71
2023-01-12T01:39:52.587Z,8.62
2023-01-12T01:44:57.517Z,8.52
2023-01-12T01:50:02.507Z,8.49
2023-01-12T01:55:14.104Z,8.46
2023-01-12T02:00:16.494Z,8.45
2023-01-12T02:05:21.779Z,8.43
2023-01-12T02:10:23.798Z,8.41
2023-01-12T02:15:47.204Z,8.41
2023-01-12T02:21:17.426Z,8.37
2023-01-12T02:27:07.663Z,8.34
2023-01-12T02:32:48.881Z,8.34
2023-01-12T02:38:15.749Z,8.32
2023-01-12T02:43:24.663Z,8.25
2023-01-12T02:48:38.600Z,8.24
2023-01-12T02:53:51.354Z,8.15
2023-01-12T02:58:57.657Z,8.14
2023-01-12T03:04:03.831Z,8.08
2023-01-12T03:09:06.474Z,8.03
2023-01-12T03:14:11.125Z,8.04
2023-01-12T03:19:20.397Z,7.94
2023-01-12T03:24:30.229Z,8.00
2023-01-12T03:29:46.614Z,7.95
2023-01-12T03:34:48.873Z,7.91
2023-01-12T03:40:19.001Z,7.88
2023-01-12T03:45:39.835Z,7.87
2023-01-12T03:50:50.311Z,7.85
2023-01-12T03:55:57.675Z,7.86
2023-01-12T04:01:00.267Z,7.86
2023-01-12T04:06:02.278Z,7.81
2023-01-12T04:11:24.127Z,7.74
2023-01-12T04:16:25.955Z,7.71
2023-01-12T04:21:46.779Z,7.65
2023-01-12T04:26:48.458Z,7.54
2023-01-12T04:31:50.207Z,7.56
2023-01-12T04:36:52.116Z,7.52
2023-01-12T04:41:54.268Z,7.53
2023-01-12T04:46:56.104Z,7.51
2023-01-12T04:52:00.085Z,7.41
2023-01-12T04:57:02.075Z,7.45
2023-01-12T05:02:03.809Z,7.44
2023-01-12T05:07:05.812Z,7.45
2023-01-12T05:12:07.812Z,7.48
2023-01-12T05:17:09.467Z,7.50
2023-01-12T05:22:11.463Z,7.47
2023-01-12T05:27:13.323Z,7.41
2023-01-12T05:32:15.149Z,7.37
2023-01-12T05:37:16.975Z,7.38
2023-01-12T05:42:37.347Z,7.30
2023-01-12T05:47:40.110Z,7.32
2023-01-12T05:52:41.968Z,7.34
2023-01-12T05:57:43.831Z,7.33
2023-01-12T06:02:45.791Z,7.21
2023-01-12T06:07:47.731Z,7.27
2023-01-12T06:13:12.307Z,7.25
2023-01-12T06:18:14.051Z,7.24
2023-01-12T06:23:17.075Z,7.24
2023-01-12T06:28:18.831Z,7.21
2023-01-12T06:33:21.670Z,7.19
2023-01-12T06:38:25.412Z,7.17
2023-01-12T06:43:27.245Z,7.07
2023-01-12T06:48:38.775Z,7.03
2023-01-12T06:53:41.216Z,7.12
2023-01-12T06:58:43.593Z,7.12
2023-01-12T07:03:45.708Z,7.18
2023-01-12T07:08:47.565Z,7.18
2023-01-12T07:13:49.291Z,7.18
2023-01-12T07:18:51.012Z,7.17
2023-01-12T07:23:52.857Z,7.17
2023-01-12T07:28:55.912Z,7.16
2023-01-12T07:33:57.798Z,7.19
2023-01-12T07:39:00.917Z,7.25
2023-01-12T07:44:02.714Z,7.22
2023-01-12T07:49:04.361Z,7.22
2023-01-12T07:54:06.639Z,7.31
2023-01-12T07:59:08.692Z,7.35
2023-01-12T08:04:10.627Z,7.38
2023-01-12T08:09:12.570Z,7.44
2023-01-12T08:14:26.430Z,7.44
2023-01-12T08:19:43.099Z,7.37
2023-01-12T08:24:51.385Z,7.41
2023-01-12T08:30:00.580Z,7.49
2023-01-12T08:35:04.585Z,7.43
2023-01-12T08:40:07.797Z,7.27
2023-01-12T08:45:10.191Z,7.31
2023-01-12T08:50:12.264Z,7.43
2023-01-12T08:55:13.980Z,7.42
2023-01-12T09:00:16.155Z,7.36
2023-01-12T09:05:18.273Z,7.47
2023-01-12T09:10:20.040Z,7.54
2023-01-12T09:15:22.330Z,7.50
2023-01-12T09:20:24.181Z,7.53
2023-01-12T09:25:26.116Z,7.60
2023-01-12T09:30:27.990Z,7.68
2023-01-12T09:35:30.666Z,7.74
2023-01-12T09:40:32.477Z,7.78
2023-01-12T09:45:52.920Z,7.93
2023-01-12T09:51:12.227Z,7.94
2023-01-12T09:56:34.949Z,7.92
2023-01-12T10:01:37.378Z,7.93
2023-01-12T10:06:39.803Z,8.08
2023-01-12T10:11:52.111Z,8.14
2023-01-12T10:17:15.508Z,8.21
2023-01-12T10:22:37.973Z,8.26
2023-01-12T10:27:43.628Z,8.34
2023-01-12T10:32:45.793Z,8.37
2023-01-12T10:37:51.758Z,8.48
2023-01-12T10:43:22.725Z,8.55
2023-01-12T10:48:26.762Z,8.59
2023-01-12T10:53:40.937Z,8.59
2023-01-12T10:58:47.719Z,8.61
2023-01-12T11:03:49.732Z,8.60
2023-01-12T11:08:52.130Z,8.63
2023-01-12T11:14:03.108Z,8.57
2023-01-12T11:19:18.943Z,8.54
2023-01-12T11:24:27.079Z,8.62
2023-01-12T11:29:38.235Z,8.63
2023-01-12T11:34:54.634Z,8.72
2023-01-12T11:40:23.036Z,8.72
2023-01-12T11:45:41.204Z,8.74
2023-01-12T11:50:44.701Z,8.81
2023-01-12T11:55:57.666Z,8.70
2023-01-12T12:01:28.479Z,8.79
2023-01-12T12:06:30.293Z,8.86
2023-01-12T12:11:51.253Z,8.97
2023-01-12T12:17:19.658Z,8.99
2023-01-12T12:23:00.201Z,8.92
2023-01-12T12:28:32.799Z,9.01
2023-01-12T12:33:56.797Z,9.04
2023-01-12T12:39:32.877Z,8.99
2023-01-12T12:45:18.399Z,8.95
2023-01-12T12:50:29.334Z,8.97
2023-01-12T12:55:31.755Z,9.02
2023-01-12T13:00:40.535Z,9.07
2023-01-12T13:05:43.758Z,9.11
2023-01-12T13:10:51.490Z,9.09
2023-01-12T13:16:19.498Z,9.06
2023-01-12T13:21:27.561Z,9.24
2023-01-12T13:26:35.694Z,9.27
2023-01-12T13:31:38.997Z,9.29
2023-01-12T13:36:40.901Z,9.30
2023-01-12T13:42:02.120Z,9.33
2023-01-12T13:47:10.343Z,9.38
2023-01-12T13:52:29.261Z,9.38
2023-01-12T13:57:32.047Z,9.40
2023-01-12T14:02:34.391Z,9.33
2023-01-12T14:07:45.590Z,9.36
2023-01-12T14:12:56.897Z,9.43
2023-01-12T14:18:19.413Z,9.46
2023-01-12T14:23:27.231Z,9.48
2023-01-12T14:28:29.876Z,9.52
2023-01-12T14:33:38.229Z,9.37
2023-01-12T14:38:42.315Z,9.42
2023-01-12T14:44:04.314Z,9.46
2023-01-12T14:49:28.930Z,9.49
2023-01-12T14:54:33.654Z,9.58
2023-01-12T14:59:43.698Z,9.58
2023-01-12T15:04:54.140Z,9.63
2023-01-12T15:09:58.855Z,9.62
2023-01-12T15:15:24.070Z,9.62
2023-01-12T15:20:49.266Z,9.57
2023-01-12T15:25:51.203Z,9.62
2023-01-12T15:30:55.563Z,9.64
2023-01-12T15:35:58.589Z,9.61
2023-01-12T15:41:00.375Z,9.61
2023-01-12T15:46:02.215Z,9.57
2023-01-12T15:51:05.446Z,9.53
2023-01-12T15:56:11.672Z,9.56
2023-01-12T16:01:16.886Z,9.56
2023-01-12T16:06:18.938Z,9.62
2023-01-12T16:11:24.350Z,9.63
2023-01-12T16:16:26.743Z,9.59
2023-01-12T16:21:28.963Z,9.65
2023-01-12T16:26:30.744Z,9.67
2023-01-12T16:31:32.697Z,9.68
2023-01-12T16:36:35.198Z,9.69
2023-01-12T16:41:37.092Z,9.70
2023-01-12T16:46:38.833Z,9.67
2023-01-12T16:51:41.620Z,9.66
2023-01-12T16:56:43.541Z,9.64
2023-01-12T17:01:45.486Z,9.64
2023-01-12T17:06:48.336Z,9.63
2023-01-12T17:11:50.600Z,9.57
2023-01-12T17:16:59.215Z,9.63
2023-01-12T17:22:03.807Z,9.62
2023-01-12T17:27:06.881Z,9.59
2023-01-12T17:32:08.905Z,9.65
2023-01-12T17:37:11.442Z,9.65
2023-01-12T17:42:34.552Z,9.62
2023-01-12T17:47:37.266Z,9.64
2023-01-12T17:52:41.933Z,9.67
2023-01-12T17:57:45.434Z,9.71
2023-01-12T18:02:50.903Z,9.72
2023-01-12T18:07:52.861Z,9.70
2023-01-12T18:12:54.625Z,9.65
2023-01-12T18:23:19.780Z,9.68
2023-01-12T18:28:21.647Z,9.57
2023-01-12T18:33:28.583Z,9.63
2023-01-12T18:38:31.861Z,9.54
2023-01-12T18:43:34.292Z,9.58
2023-01-12T18:48:47.657Z,9.55
2023-01-12T18:53:49.500Z,9.57
2023-01-12T18:58:52.317Z,9.53
2023-01-12T19:03:54.394Z,9.47
2023-01-12T19:09:15.155Z,9.44
2023-01-12T19:14:35.987Z,9.44
2023-01-12T19:19:38.226Z,9.46
2023-01-12T19:24:58.882Z,9.44
2023-01-12T19:30:01.130Z,9.48
2023-01-12T19:35:10.889Z,9.51
2023-01-12T19:40:24.500Z,9.55
2023-01-12T19:45:27.683Z,9.60
2023-01-12T19:50:30.207Z,9.61
2023-01-12T19:55:33.366Z,9.61
2023-01-12T20:00:46.723Z,9.61
2023-01-12T20:05:51.308Z,9.61
2023-01-12T20:10:59.101Z,9.55
2023-01-12T20:16:10.598Z,9.60
2023-01-12T20:21:12.953Z,9.58
2023-01-12T20:26:15.786Z,9.55
2023-01-12T20:31:20.981Z,9.56
2023-01-12T20:36:23.295Z,9.58
2023-01-12T20:41:26.640Z,9.59
2023-01-12T20:46:28.890Z,9.55
2023-01-12T20:51:31.409Z,9.57
2023-01-12T20:56:33.559Z,9.58
2023-01-12T21:01:35.620Z,9.57
2023-01-12T21:06:42.145Z,9.54
2023-01-12T21:11:47.104Z,9.55
2023-01-12T21:16:49.060Z,9.58
2023-01-12T21:21:51.730Z,9.59
2023-01-12T21:26:57.964Z,9.61
2023-01-12T21:31:59.833Z,9.59
2023-01-12T21:37:01.615Z,9.60
2023-01-12T21:42:22.268Z,9.59
2023-01-12T21:47:23.990Z,9.59
2023-01-12T21:52:31.383Z,9.55
2023-01-12T21:57:33.060Z,9.53
2023-01-12T22:02:35.205Z,9.52
2023-01-12T22:07:37.011Z,9.49
2023-01-12T22:12:38.808Z,9.48
2023-01-12T22:17:40.535Z,9.48
2023-01-12T22:22:42.868Z,9.49
2023-01-12T22:27:45.054Z,9.49
2023-01-12T22:32:47.360Z,9.50
2023-01-12T22:37:49.068Z,9.46
2023-01-12T22:43:11.548Z,9.42
2023-01-12T22:48:13.318Z,9.36
2023-01-12T22:53:15.126Z,9.18
2023-01-12T22:58:19.605Z,9.15
2023-01-12T23:03:21.662Z,9.16
2023-01-12T23:08:24.984Z,9.16
2023-01-12T23:13:26.957Z,9.11
2023-01-12T23:18:31.154Z,9.11
2023-01-12T23:23:33.271Z,9.05
2023-01-12T23:28:41.328Z,9.05
2023-01-12T23:33:44.116Z,9.11
2023-01-12T23:38:46.807Z,9.08
2023-01-12T23:43:50.754Z,9.15
2023-01-12T23:48:55.313Z,9.13
2023-01-12T23:53:59.784Z,9.15
2023-01-12T23:59:01.879Z,9.15
